Time;durP1;ratioP1;P1;durP2;ratioP2;P2;SDS_P1;SDS_P2;PMS_P1;PMS_P2;Temp;Humidity;BMP_temperature;BMP_pressure;BME280_temperature;BME280_humidity;BME280_pressure;Samples;Min_cycle;Max_cycle;Signal;HPM_P1;HPM_P2
2021/12/31 00:00:11;;;;;;;2.50;0.82;;;;;;;21.36;43.22;101778.66;7311011;19;130460;-60
2021/12/31 00:02:38;;;;;;;4.50;1.13;;;;;;;21.35;43.40;101782.53;7313491;19;130670;-60
2021/12/31 00:05:06;;;;;;;1.98;1.00;;;;;;;21.33;42.98;101783.84;7313619;19;128975;-59
2021/12/31 00:07:33;;;;;;;2.03;0.98;;;;;;;21.32;43.13;101771.91;7309465;19;128947;-60
2021/12/31 00:10:01;;;;;;;2.92;1.00;;;;;;;21.32;43.34;101782.16;7313463;19;131399;-60
2021/12/31 00:12:28;;;;;;;5.53;1.42;;;;;;;21.31;43.46;101780.47;7311243;19;130904;-60
2021/12/31 00:14:55;;;;;;;5.85;1.00;;;;;;;21.29;43.06;101777.13;7313902;19;129216;-60
2021/12/31 00:17:23;;;;;;;2.42;1.05;;;;;;;21.27;43.07;101777.34;7312183;19;129132;-60
2021/12/31 00:19:59;;;;;;;4.30;0.90;;;;;;;21.27;43.48;101770.94;7311221;19;130424;-59
2021/12/31 00:24:53;;;;;;;3.38;1.10;;;;;;;21.22;43.42;101780.03;7311189;19;129481;-60
2021/12/31 00:27:20;;;;;;;6.00;1.15;;;;;;;21.22;43.26;101777.25;7311431;19;128868;-59
2021/12/31 00:29:47;;;;;;;2.95;1.00;;;;;;;21.20;43.20;101785.81;7310432;19;131692;-60
2021/12/31 00:32:13;;;;;;;2.05;1.00;;;;;;;21.19;43.32;101774.94;7313786;19;130513;-59
2021/12/31 00:34:40;;;;;;;1.67;0.82;;;;;;;21.18;43.45;101782.41;7309563;19;132236;-59
2021/12/31 00:37:07;;;;;;;3.67;1.05;;;;;;;21.16;43.38;101778.19;7313539;19;129202;-59
2021/12/31 00:39:33;;;;;;;2.67;0.80;;;;;;;21.15;43.12;101780.16;7310787;19;131157;-59
2021/12/31 00:42:00;;;;;;;3.03;1.08;;;;;;;21.14;43.10;101780.38;7312361;19;130538;-60
2021/12/31 00:44:27;;;;;;;4.18;0.90;;;;;;;21.12;43.62;101783.41;7311486;19;129988;-59
2021/12/31 00:46:53;;;;;;;2.22;0.90;;;;;;;21.11;43.61;101781.72;7312010;19;128883;-59
2021/12/31 00:49:20;;;;;;;1.40;0.80;;;;;;;21.10;43.44;101779.19;7311059;19;131407;-60
2021/12/31 00:51:46;;;;;;;2.00;0.77;;;;;;;21.09;43.49;101783.06;7311539;19;130564;-59
2021/12/31 00:54:13;;;;;;;3.40;0.82;;;;;;;21.08;43.60;101790.53;7310454;19;129842;-60
2021/12/31 00:56:40;;;;;;;1.40;0.60;;;;;;;21.07;43.62;101788.84;7311177;19;129025;-59
2021/12/31 00:59:07;;;;;;;3.63;1.00;;;;;;;21.05;43.37;101785.44;7311689;19;131364;-59
2021/12/31 01:01:35;;;;;;;2.90;1.20;;;;;;;21.05;43.64;101782.66;7309637;19;130536;-59
2021/12/31 01:04:03;;;;;;;2.25;1.15;;;;;;;21.03;43.20;101779.31;7312303;19;130076;-61
2021/12/31 01:06:29;;;;;;;1.70;0.98;;;;;;;21.02;43.63;101785.94;7310718;19;129165;-59
2021/12/31 01:08:56;;;;;;;2.65;0.90;;;;;;;21.00;43.43;101772.25;7312144;19;130721;-60
2021/12/31 01:11:22;;;;;;;2.78;0.90;;;;;;;20.99;43.68;101778.09;7307328;19;131232;-59
2021/12/31 01:13:57;;;;;;;2.38;0.85;;;;;;;20.97;43.27;101769.13;7312650;19;128717;-59
2021/12/31 01:16:34;;;;;;;4.45;0.70;;;;;;;20.97;43.65;101771.91;7308577;19;129663;-60
2021/12/31 01:21:33;;;;;;;1.88;0.93;;;;;;;20.96;43.25;101767.44;7309041;19;130552;-59
2021/12/31 01:24:01;;;;;;;1.67;0.80;;;;;;;20.95;43.66;101766.59;7310304;19;128742;-60
2021/12/31 01:26:29;;;;;;;1.55;0.80;;;;;;;20.96;43.20;101773.00;7318661;19;130126;-60
2021/12/31 01:28:56;;;;;;;1.35;0.68;;;;;;;20.95;43.65;101769.38;7317075;19;130691;-59
2021/12/31 01:31:24;;;;;;;2.33;0.90;;;;;;;20.94;43.57;101761.25;7318883;19;130709;-59
2021/12/31 01:33:52;;;;;;;2.60;0.95;;;;;;;20.93;43.34;101765.13;7316687;19;129452;-60
2021/12/31 01:36:18;;;;;;;7.70;1.08;;;;;;;20.90;43.23;101761.75;7319351;19;130124;-60
2021/12/31 01:38:45;;;;;;;3.42;0.77;;;;;;;20.90;43.24;101760.91;7314162;19;131183;-60
2021/12/31 01:41:13;;;;;;;2.38;0.80;;;;;;;20.89;43.20;101768.41;7318785;19;130534;-59
2021/12/31 01:43:40;;;;;;;3.10;1.00;;;;;;;20.88;43.34;101765.84;7317016;19;131357;-60
2021/12/31 01:46:11;;;;;;;4.28;0.80;;;;;;;20.87;43.65;101767.81;7318944;19;129781;-60
2021/12/31 01:49:01;;;;;;;4.82;0.73;;;;;;;20.86;43.21;101771.66;7315946;19;130703;-59
2021/12/31 01:51:29;;;;;;;1.77;0.80;;;;;;;20.86;43.62;101759.72;7315117;19;130433;-59
2021/12/31 01:53:56;;;;;;;2.35;0.73;;;;;;;20.84;43.24;101765.50;7318338;19;129988;-59
2021/12/31 01:56:24;;;;;;;2.20;1.05;;;;;;;20.83;43.71;101771.31;7316083;19;129614;-60
2021/12/31 01:58:54;;;;;;;1.65;0.85;;;;;;;20.84;43.65;101773.00;7318471;19;130450;-60
2021/12/31 02:01:22;;;;;;;2.30;0.82;;;;;;;20.82;43.43;101773.22;7315318;19;132230;-60
2021/12/31 02:03:51;;;;;;;3.65;0.68;;;;;;;20.81;43.68;101765.97;7318390;19;129020;-60
2021/12/31 02:06:18;;;;;;;1.98;0.80;;;;;;;20.81;43.71;101762.34;7313907;19;130259;-60
2021/12/31 02:08:45;;;;;;;3.50;0.95;;;;;;;20.79;43.71;101768.16;7317084;19;130639;-60
2021/12/31 02:11:12;;;;;;;1.98;0.77;;;;;;;20.79;43.69;101764.53;7315703;19;130593;-60
2021/12/31 02:13:39;;;;;;;3.20;0.75;;;;;;;20.78;43.70;101771.16;7317687;19;128997;-59
2021/12/31 02:16:07;;;;;;;2.30;0.77;;;;;;;20.76;43.74;101763.09;7316224;19;128912;-59
2021/12/31 02:18:35;;;;;;;2.85;0.90;;;;;;;20.75;43.48;101775.25;7316207;19;130469;-59
2021/12/31 02:21:07;;;;;;;1.67;0.70;;;;;;;20.74;43.51;101762.44;7318577;19;130657;-60
2021/12/31 02:23:42;;;;;;;2.08;0.88;;;;;;;20.74;43.69;101770.78;7313746;19;129348;-59
2021/12/31 02:26:10;;;;;;;4.43;0.70;;;;;;;20.74;43.32;101770.78;7316989;19;128918;-59
2021/12/31 02:28:38;;;;;;;2.03;0.77;;;;;;;20.72;43.67;101761.81;7315335;19;130849;-60
2021/12/31 02:31:05;;;;;;;1.52;0.80;;;;;;;20.71;43.64;101754.56;7316503;19;131101;-60
2021/12/31 02:33:33;;;;;;;1.77;0.75;;;;;;;20.69;43.57;101763.16;7313660;19;130196;-59
2021/12/31 02:36:03;;;;;;;3.05;0.80;;;;;;;20.70;43.52;101758.44;7313841;19;130683;-59
2021/12/31 02:38:29;;;;;;;2.03;0.80;;;;;;;20.68;43.31;101761.47;7316869;19;131273;-60
2021/12/31 02:40:56;;;;;;;5.35;0.95;;;;;;;20.68;43.24;101755.03;7315070;19;130679;-60
2021/12/31 02:43:23;;;;;;;3.63;0.90;;;;;;;20.67;43.54;101758.94;7316486;19;129525;-60
2021/12/31 02:45:49;;;;;;;1.85;0.85;;;;;;;20.66;43.26;101758.06;7315081;19;128900;-60
2021/12/31 02:48:24;;;;;;;4.60;0.93;;;;;;;20.66;43.33;101755.28;7314952;19;130458;-60
2021/12/31 02:50:54;;;;;;;1.55;0.90;;;;;;;20.64;43.28;101754.69;7312823;19;131239;-60
2021/12/31 02:53:26;;;;;;;2.13;0.73;;;;;;;20.65;43.71;101755.53;7317119;19;128968;-59
2021/12/31 02:56:02;;;;;;;1.92;0.70;;;;;;;20.64;43.50;101763.03;7314377;19;128922;-60
2021/12/31 02:58:30;;;;;;;3.13;0.80;;;;;;;20.62;43.50;101767.97;7315136;19;131657;-60
2021/12/31 03:00:57;;;;;;;1.20;0.70;;;;;;;20.61;43.49;101763.53;7313879;19;130894;-60
2021/12/31 03:03:25;;;;;;;1.58;0.75;;;;;;;20.60;43.33;101765.44;7315992;19;131073;-60
2021/12/31 03:05:53;;;;;;;2.50;0.85;;;;;;;20.59;43.28;101763.75;7315712;19;129280;-59
2021/12/31 03:08:27;;;;;;;2.35;0.70;;;;;;;20.59;43.30;101758.19;7313905;19;131642;-60
2021/12/31 03:10:55;;;;;;;2.08;0.77;;;;;;;20.57;43.58;101757.56;7316927;19;130503;-60
2021/12/31 03:13:23;;;;;;;4.30;1.10;;;;;;;20.58;43.66;101753.72;7313587;19;129358;-60
2021/12/31 03:15:52;;;;;;;1.60;0.63;;;;;;;20.57;43.49;101751.19;7315641;19;129018;-60
2021/12/31 03:18:20;;;;;;;2.00;0.90;;;;;;;20.55;43.29;101734.75;7313248;19;130826;-60
2021/12/31 03:20:57;;;;;;;1.60;0.70;;;;;;;20.56;43.50;101747.53;7316122;19;130610;-60
2021/12/31 03:23:24;;;;;;;2.45;0.80;;;;;;;20.54;43.71;101741.41;7313713;19;128987;-60
2021/12/31 03:25:51;;;;;;;2.40;1.00;;;;;;;20.54;43.47;101740.53;7315199;19;128870;-60
2021/12/31 03:28:19;;;;;;;2.72;0.88;;;;;;;20.53;43.52;101747.19;7311872;19;130623;-59
2021/12/31 03:30:46;;;;;;;2.85;1.05;;;;;;;20.52;43.28;101738.00;7313274;19;131240;-60
2021/12/31 03:33:14;;;;;;;2.35;0.80;;;;;;;20.52;43.25;101745.47;7312465;19;128970;-60
2021/12/31 03:35:42;;;;;;;3.72;1.08;;;;;;;20.50;43.70;101731.84;7312985;19;128928;-60
2021/12/31 03:38:08;;;;;;;2.70;0.90;;;;;;;20.50;43.79;101734.63;7315356;19;130583;-60
2021/12/31 03:40:35;;;;;;;2.70;0.70;;;;;;;20.51;43.69;101743.78;7312826;19;130495;-60
2021/12/31 03:43:02;;;;;;;2.45;0.80;;;;;;;20.49;43.19;101729.31;7314678;19;128938;-60
2021/12/31 03:45:29;;;;;;;1.95;0.73;;;;;;;20.48;43.42;101739.56;7312881;19;129294;-60
2021/12/31 03:47:56;;;;;;;1.52;0.80;;;;;;;20.49;43.22;101737.66;7312666;19;130728;-60
2021/12/31 03:50:23;;;;;;;2.05;0.70;;;;;;;20.47;43.25;101735.09;7313613;19;130583;-60
2021/12/31 03:52:49;;;;;;;3.78;0.90;;;;;;;20.46;43.29;101736.16;7314358;19;130753;-60
2021/12/31 03:55:16;;;;;;;2.40;0.70;;;;;;;20.46;43.23;101725.06;7312665;19;128852;-60
2021/12/31 03:57:43;;;;;;;3.70;0.90;;;;;;;20.45;43.45;101737.25;7312133;19;130432;-60
2021/12/31 04:00:11;;;;;;;2.42;0.90;;;;;;;20.44;43.67;101739.19;7314639;19;131239;-60
2021/12/31 04:02:38;;;;;;;1.98;0.80;;;;;;;20.44;43.26;101732.78;7312838;19;128975;-59
2021/12/31 04:05:05;;;;;;;2.50;0.68;;;;;;;20.43;43.75;101737.50;7314880;19;128740;-60
2021/12/31 04:07:32;;;;;;;3.58;0.90;;;;;;;20.43;43.04;101745.00;7312382;19;130727;-60
2021/12/31 04:09:58;;;;;;;4.50;1.15;;;;;;;20.42;43.41;101758.03;7312800;19;130469;-59
2021/12/31 04:12:25;;;;;;;2.17;0.80;;;;;;;20.41;43.20;101750.78;7312195;19;128976;-60
2021/12/31 04:14:52;;;;;;;4.00;0.90;;;;;;;20.41;43.42;101761.06;7312749;19;129059;-60
2021/12/31 04:17:18;;;;;;;5.68;0.88;;;;;;;20.40;43.27;101759.38;7311119;19;136373;-60
2021/12/31 04:19:51;;;;;;;2.13;0.98;;;;;;;20.40;43.43;101759.38;7313131;19;130531;-60
2021/12/31 04:22:20;;;;;;;2.25;0.90;;;;;;;20.39;43.68;101757.69;7314257;19;129951;-60
2021/12/31 04:27:17;;;;;;;2.05;0.70;;;;;;;20.38;43.25;101755.97;7312251;19;131490;-60
2021/12/31 04:29:51;;;;;;;2.25;0.98;;;;;;;20.37;43.54;101746.78;7310458;19;130603;-60
2021/12/31 04:32:24;;;;;;;1.48;0.80;;;;;;;20.37;43.44;101743.16;7313418;19;130977;-59
2021/12/31 04:34:51;;;;;;;2.63;0.95;;;;;;;20.37;43.19;101745.94;7311268;19;129220;-60
2021/12/31 04:37:18;;;;;;;1.52;0.80;;;;;;;20.35;43.42;101745.34;7313469;19;130755;-60
2021/12/31 04:39:45;;;;;;;1.75;0.80;;;;;;;20.35;43.24;101739.78;7310390;19;131252;-60
2021/12/31 04:42:12;;;;;;;1.67;0.80;;;;;;;20.35;43.68;101745.34;7312021;19;129059;-59
2021/12/31 04:44:39;;;;;;;1.50;0.50;;;;;;;20.33;43.72;101742.81;7310866;19;128789;-60
2021/12/31 04:47:06;;;;;;;1.95;0.90;;;;;;;20.33;43.66;101741.94;7311130;19;131762;-60
2021/12/31 04:49:32;;;;;;;3.08;0.95;;;;;;;20.33;43.43;101747.50;7313083;19;131355;-59
2021/12/31 04:51:59;;;;;;;2.70;0.88;;;;;;;20.32;43.62;101740.25;7308788;19;129595;-60
2021/12/31 04:54:26;;;;;;;2.65;0.93;;;;;;;20.31;43.46;101744.13;7313078;19;129461;-60
2021/12/31 04:56:55;;;;;;;1.35;0.80;;;;;;;20.30;43.42;101754.38;7310061;19;130515;-59
2021/12/31 04:59:22;;;;;;;2.08;0.95;;;;;;;20.31;43.47;101746.91;7314416;19;130554;-60
2021/12/31 05:01:53;;;;;;;2.25;0.60;;;;;;;20.30;43.61;101740.50;7316400;19;129056;-60
2021/12/31 05:04:20;;;;;;;2.63;0.75;;;;;;;20.29;43.44;101736.88;7319995;19;129240;-59
2021/12/31 05:06:50;;;;;;;3.15;0.90;;;;;;;20.28;43.31;101724.06;7317326;19;131403;-60
2021/12/31 05:09:17;;;;;;;1.92;0.80;;;;;;;20.28;43.49;101732.41;7317761;19;130404;-60
2021/12/31 05:11:44;;;;;;;2.92;0.80;;;;;;;20.26;43.22;101737.34;7317771;19;129138;-60
2021/12/31 05:14:11;;;;;;;1.70;0.65;;;;;;;20.27;43.34;101736.25;7318747;19;129536;-60
2021/12/31 05:16:38;;;;;;;1.52;0.70;;;;;;;20.26;43.48;101729.00;7316871;19;131534;-60
2021/12/31 05:19:04;;;;;;;2.33;0.80;;;;;;;20.26;43.67;101723.47;7317658;19;131494;-59
2021/12/31 05:21:32;;;;;;;1.92;0.85;;;;;;;20.26;43.42;101720.69;7318874;19;128778;-61
2021/12/31 05:23:59;;;;;;;2.00;0.63;;;;;;;20.26;43.43;101722.59;7314731;19;129633;-60
2021/12/31 05:26:25;;;;;;;2.40;0.90;;;;;;;20.24;43.27;101720.06;7318349;19;130439;-60
2021/12/31 05:28:52;;;;;;;2.55;0.90;;;;;;;20.24;43.55;101714.50;7315669;19;130998;-60
2021/12/31 05:31:19;;;;;;;2.65;0.90;;;;;;;20.25;43.50;101713.41;7319763;19;130021;-59
2021/12/31 05:33:45;;;;;;;1.83;0.80;;;;;;;20.25;43.25;101718.97;7315049;19;128946;-60
2021/12/31 05:36:13;;;;;;;1.17;0.60;;;;;;;20.23;43.43;101715.59;7318947;19;131242;-60
2021/12/31 05:38:40;;;;;;;1.15;0.80;;;;;;;20.23;43.39;101715.59;7316291;19;131613;-60
2021/12/31 05:41:06;;;;;;;1.40;0.57;;;;;;;20.25;42.99;101693.97;7319063;19;128818;-59
2021/12/31 05:43:33;;;;;;;2.80;0.70;;;;;;;20.24;43.58;101689.50;7316614;19;128894;-60
2021/12/31 05:46:00;;;;;;;1.17;0.70;;;;;;;20.24;43.37;101688.66;7318064;19;130797;-59
2021/12/31 05:48:27;;;;;;;1.55;0.70;;;;;;;20.24;43.72;101699.78;7314964;19;130581;-60
2021/12/31 05:50:53;;;;;;;1.92;0.80;;;;;;;20.22;43.46;101688.88;7317035;19;128861;-60
2021/12/31 05:53:20;;;;;;;1.75;0.60;;;;;;;20.22;43.27;101708.34;7318467;19;130449;-60
2021/12/31 05:55:47;;;;;;;1.63;0.68;;;;;;;20.22;43.21;101702.78;7316571;19;131355;-60
2021/12/31 05:58:13;;;;;;;1.77;0.80;;;;;;;20.21;43.47;101695.53;7317631;19;130631;-60
2021/12/31 06:00:40;;;;;;;1.77;0.80;;;;;;;20.21;43.54;101684.41;7314308;19;129060;-59
2021/12/31 06:03:07;;;;;;;1.65;0.88;;;;;;;20.21;43.28;101684.41;7317348;19;128889;-60
2021/12/31 06:05:34;;;;;;;1.70;0.80;;;;;;;20.21;43.67;101675.25;7313853;19;130664;-59
2021/12/31 06:08:00;;;;;;;2.58;0.70;;;;;;;20.20;43.43;101682.72;7317688;19;130356;-60
2021/12/31 06:10:27;;;;;;;3.15;0.93;;;;;;;20.20;43.27;101684.66;7313811;19;129659;-60
2021/12/31 06:12:58;;;;;;;0.95;0.57;;;;;;;20.20;43.57;101682.72;7318462;19;129095;-60
2021/12/31 06:15:27;;;;;;;1.58;0.80;;;;;;;20.19;43.53;101681.03;7313519;19;130718;-59
2021/12/31 06:17:55;;;;;;;1.77;0.80;;;;;;;20.18;43.71;101673.81;7314334;19;130754;-60
2021/12/31 06:20:21;;;;;;;1.95;0.80;;;;;;;20.18;43.21;101679.34;7313640;19;128981;-59
2021/12/31 06:22:48;;;;;;;1.08;0.50;;;;;;;20.18;43.52;101668.25;7315377;19;129091;-60
2021/12/31 06:25:15;;;;;;;1.10;0.60;;;;;;;20.17;43.45;101671.25;7315305;19;131494;-59
2021/12/31 06:27:41;;;;;;;1.50;0.63;;;;;;;20.17;43.31;101669.31;7313689;19;131491;-59
2021/12/31 06:30:09;;;;;;;2.15;0.88;;;;;;;20.17;43.63;101669.31;7314519;19;128831;-59
2021/12/31 06:32:35;;;;;;;1.77;0.77;;;;;;;20.15;43.35;101677.06;7311635;19;129047;-60
2021/12/31 06:35:02;;;;;;;1.60;0.68;;;;;;;20.16;43.67;101697.31;7316093;19;131296;-60
2021/12/31 06:37:29;;;;;;;2.35;0.45;;;;;;;20.14;43.66;101694.78;7312124;19;131247;-59
2021/12/31 06:39:55;;;;;;;1.52;0.75;;;;;;;20.14;43.34;101694.78;7316408;19;129931;-60
2021/12/31 06:42:25;;;;;;;3.13;0.90;;;;;;;20.14;43.52;101697.56;7311529;19;133892;-60
2021/12/31 06:44:52;;;;;;;2.15;0.70;;;;;;;20.13;43.48;101704.22;7315686;19;130861;-59
2021/12/31 06:47:19;;;;;;;3.72;0.80;;;;;;;20.11;43.56;101710.03;7312464;19;130954;-60
2021/12/31 06:49:45;;;;;;;1.00;0.60;;;;;;;20.13;43.42;101718.09;7312715;19;128958;-59
2021/12/31 06:52:12;;;;;;;0.95;0.60;;;;;;;20.11;43.29;101710.03;7313259;19;129489;-59
2021/12/31 06:54:39;;;;;;;1.67;0.70;;;;;;;20.12;43.57;101708.06;7314098;19;130780;-59
2021/12/31 06:57:05;;;;;;;1.35;0.80;;;;;;;20.10;43.75;101710.25;7313860;19;131311;-60
2021/12/31 06:59:32;;;;;;;1.60;0.68;;;;;;;20.10;43.35;101704.69;7310143;19;129628;-60
2021/12/31 07:01:59;;;;;;;0.95;0.55;;;;;;;20.09;43.68;101701.06;7311632;19;129553;-60
2021/12/31 07:04:26;;;;;;;2.10;0.63;;;;;;;20.09;43.49;101711.31;7310726;19;130739;-59
2021/12/31 07:06:53;;;;;;;1.67;0.77;;;;;;;20.09;43.32;101714.97;7311963;19;130542;-59
2021/12/31 07:09:29;;;;;;;2.92;0.73;;;;;;;20.09;43.67;101719.66;7313370;19;129656;-60
2021/12/31 07:11:55;;;;;;;1.95;0.77;;;;;;;20.08;43.72;101717.94;7314543;19;128760;-60
2021/12/31 07:14:22;;;;;;;1.73;0.70;;;;;;;20.07;43.47;101725.47;7310024;19;131746;-60
2021/12/31 07:16:49;;;;;;;1.20;0.60;;;;;;;20.08;43.39;101726.28;7314782;19;130859;-60
2021/12/31 07:19:16;;;;;;;1.92;0.75;;;;;;;20.07;43.39;101721.81;7313778;19;129019;-59
2021/12/31 07:21:43;;;;;;;1.38;0.70;;;;;;;20.06;43.68;101722.94;7314825;19;130507;-60
2021/12/31 07:24:10;;;;;;;1.83;0.80;;;;;;;20.06;43.30;101732.09;7313295;19;130341;-60
2021/12/31 07:26:37;;;;;;;0.95;0.50;;;;;;;20.06;43.55;101725.72;7311088;19;130605;-60
2021/12/31 07:29:04;;;;;;;1.20;0.63;;;;;;;20.06;43.66;101720.16;7306272;19;129016;-60
2021/12/31 07:31:30;;;;;;;1.10;0.60;;;;;;;20.06;43.49;101715.44;7309766;19;129441;-59
2021/12/31 07:33:57;;;;;;;1.27;0.50;;;;;;;20.06;43.68;101714.59;7313610;19;131073;-60
2021/12/31 07:36:25;;;;;;;1.42;0.82;;;;;;;20.07;43.46;101716.25;7310009;19;131595;-60
2021/12/31 07:38:59;;;;;;;3.88;0.63;;;;;;;20.05;43.32;101713.72;7313515;19;129377;-60
2021/12/31 07:41:26;;;;;;;1.17;0.60;;;;;;;20.06;43.56;101725.72;7312135;19;129067;-59
2021/12/31 07:43:53;;;;;;;8.50;0.95;;;;;;;20.06;43.06;101720.97;7315067;19;131276;-60
2021/12/31 07:46:20;;;;;;;16.52;1.15;;;;;;;20.06;43.05;101732.09;7310955;19;130586;-59
2021/12/31 07:48:47;;;;;;;4.13;0.90;;;;;;;20.08;43.39;101742.97;7314279;19;128914;-60
2021/12/31 07:51:14;;;;;;;3.13;0.90;;;;;;;20.09;43.17;101761.31;7310592;19;130568;-60
2021/12/31 07:53:41;;;;;;;5.93;1.10;;;;;;;20.10;43.18;101760.25;7311130;19;131402;-60
2021/12/31 07:56:08;;;;;;;9.80;1.08;;;;;;;20.29;43.10;101770.22;7308820;19;134118;-60
2021/12/31 07:58:34;;;;;;;2.90;0.80;;;;;;;20.57;42.22;101771.47;7313151;19;130199;-59
2021/12/31 08:01:01;;;;;;;10.05;1.05;;;;;;;20.83;42.06;101771.31;7310821;19;129204;-59
2021/12/31 08:03:28;;;;;;;4.35;0.80;;;;;;;20.81;41.98;101762.34;7312129;19;132986;-59
2021/12/31 08:05:55;;;;;;;7.15;0.95;;;;;;;20.81;42.32;101771.53;7313464;19;131389;-60
2021/12/31 08:08:22;;;;;;;6.35;0.85;;;;;;;20.86;41.88;101754.97;7311562;19;128979;-60
2021/12/31 08:10:48;;;;;;;3.83;0.85;;;;;;;20.77;42.28;101756.44;7313991;19;129359;-60
2021/12/31 08:13:24;;;;;;;1.95;0.60;;;;;;;20.77;42.25;101750.00;7309618;19;135509;-59
2021/12/31 08:15:51;;;;;;;4.38;0.70;;;;;;;20.78;42.34;101766.47;7312650;19;130566;-60
2021/12/31 08:18:18;;;;;;;6.00;0.90;;;;;;;20.79;42.32;101773.72;7310218;19;129433;-60
2021/12/31 08:20:45;;;;;;;1.92;0.85;;;;;;;20.80;42.50;101769.84;7312805;19;128709;-60
2021/12/31 08:23:12;;;;;;;2.53;0.60;;;;;;;20.81;42.05;101762.34;7310228;19;131341;-61
2021/12/31 08:25:41;;;;;;;2.08;0.90;;;;;;;20.80;42.29;101758.72;7312467;19;131319;-60
2021/12/31 08:28:08;;;;;;;2.90;0.82;;;;;;;20.77;42.33;101767.56;7309908;19;129494;-60
2021/12/31 08:30:36;;;;;;;5.38;0.90;;;;;;;20.75;42.40;101767.78;7309107;19;130507;-60
2021/12/31 08:33:02;;;;;;;4.07;0.85;;;;;;;20.73;42.41;101757.97;7309851;19;130674;-60
2021/12/31 08:35:30;;;;;;;4.93;1.00;;;;;;;20.70;42.41;101764.00;7317235;19;133400;-60
2021/12/31 08:37:57;;;;;;;6.30;0.90;;;;;;;20.69;42.79;101752.03;7318301;19;129027;-59
2021/12/31 08:40:24;;;;;;;4.68;0.73;;;;;;;20.67;42.53;101754.22;7315498;19;129025;-61
2021/12/31 08:42:51;;;;;;;4.28;0.90;;;;;;;20.66;42.48;101746.13;7318481;19;130589;-60
2021/12/31 08:45:19;;;;;;;2.38;0.80;;;;;;;20.64;42.91;101745.50;7317641;19;130563;-61
2021/12/31 08:47:46;;;;;;;4.05;1.25;;;;;;;20.60;42.58;101745.97;7320200;19;128708;-60
2021/12/31 08:50:13;;;;;;;4.32;0.98;;;;;;;20.58;42.31;101753.72;7315151;19;129002;-60
2021/12/31 08:52:40;;;;;;;12.15;1.60;;;;;;;20.57;42.37;101742.84;7319293;19;130518;-61
2021/12/31 08:55:09;;;;;;;6.30;1.35;;;;;;;20.54;42.13;101735.84;7319236;19;131560;-60
2021/12/31 08:57:36;;;;;;;4.72;1.10;;;;;;;20.53;41.86;101725.81;7318665;19;128870;-61
2021/12/31 09:00:05;;;;;;;10.10;1.20;;;;;;;20.52;42.05;101724.09;7317477;19;129103;-60
2021/12/31 09:02:33;;;;;;;10.95;1.88;;;;;;;20.51;41.58;101708.50;7318210;19;130696;-60
2021/12/31 09:04:59;;;;;;;4.82;1.27;;;;;;;20.49;41.90;101707.06;7315075;19;130546;-60
2021/12/31 09:07:26;;;;;;;4.53;1.30;;;;;;;20.49;41.79;101723.75;7315640;19;133164;-60
2021/12/31 09:09:53;;;;;;;4.38;0.90;;;;;;;20.44;41.61;101750.31;7318469;19;129394;-60
2021/12/31 09:12:20;;;;;;;3.72;0.80;;;;;;;20.43;41.30;101745.00;7316610;19;130436;-61
2021/12/31 09:14:47;;;;;;;4.70;1.00;;;;;;;20.39;41.02;101761.28;7319670;19;131046;-60
2021/12/31 09:17:14;;;;;;;6.68;1.30;;;;;;;20.38;41.00;101781.00;7316089;19;128834;-60
2021/12/31 09:19:41;;;;;;;3.38;0.90;;;;;;;20.37;40.95;101791.25;7318349;19;130390;-60
2021/12/31 09:22:09;;;;;;;5.63;1.33;;;;;;;20.38;40.89;101800.44;7320249;19;130938;-60
2021/12/31 09:24:36;;;;;;;5.80;1.38;;;;;;;20.38;40.68;101797.66;7317826;19;130497;-61
2021/12/31 09:27:02;;;;;;;2.65;1.10;;;;;;;20.38;40.51;101806.84;7320123;19;129376;-60
2021/12/31 09:29:29;;;;;;;4.43;1.52;;;;;;;20.42;40.51;101810.00;7317595;19;134960;-60
2021/12/31 09:31:56;;;;;;;2.00;1.02;;;;;;;20.42;40.55;101802.50;7319744;19;130435;-60
2021/12/31 09:34:23;;;;;;;1.77;0.80;;;;;;;20.45;39.93;101806.72;7315603;19;131648;-60
2021/12/31 09:36:50;;;;;;;3.05;0.90;;;;;;;20.48;39.96;101800.72;7319379;19;128773;-60
2021/12/31 09:39:17;;;;;;;3.92;1.00;;;;;;;20.53;39.50;101794.44;7315754;19;129518;-60
2021/12/31 09:41:44;;;;;;;1.20;0.80;;;;;;;20.59;39.71;101793.50;7318546;19;131378;-61
2021/12/31 09:44:14;;;;;;;4.43;0.90;;;;;;;20.67;40.07;101789.53;7315701;19;130404;-60
2021/12/31 09:46:42;;;;;;;2.17;0.98;;;;;;;20.76;39.49;101788.09;7312551;19;128953;-61
2021/12/31 09:49:09;;;;;;;3.05;1.10;;;;;;;20.84;39.27;101782.19;7314816;19;129011;-60
2021/12/31 09:51:41;;;;;;;3.10;0.82;;;;;;;20.93;39.18;101827.19;7317271;19;130536;-60
2021/12/31 09:54:10;;;;;;;4.47;1.15;;;;;;;21.01;39.22;101815.69;7318740;19;130894;-61
2021/12/31 09:56:40;;;;;;;3.72;0.90;;;;;;;21.09;38.94;101767.19;7315136;19;129309;-61
2021/12/31 09:59:08;;;;;;;4.28;1.20;;;;;;;21.14;38.88;101799.84;7317425;19;129288;-60
2021/12/31 10:01:46;;;;;;;7.32;1.30;;;;;;;21.15;38.80;101802.41;7310295;19;130879;-61
2021/12/31 10:04:13;;;;;;;5.93;1.20;;;;;;;21.18;38.88;101787.97;7317611;19;130674;-60
2021/12/31 10:07:10;;;;;;;3.58;1.00;;;;;;;21.29;38.94;101788.25;7313697;19;128908;-60
2021/12/31 10:09:41;;;;;;;5.03;1.17;;;;;;;21.34;38.64;101782.78;7315090;19;129004;-60
2021/12/31 10:12:12;;;;;;;2.05;0.95;;;;;;;21.40;38.58;101770.69;7313746;19;130810;-61
2021/12/31 10:14:40;;;;;;;5.93;0.90;;;;;;;21.46;38.64;101782.78;7310675;19;131140;-60
2021/12/31 10:17:09;;;;;;;3.75;1.05;;;;;;;21.51;38.63;101780.09;7317770;19;129667;-61
2021/12/31 10:19:35;;;;;;;3.40;0.90;;;;;;;21.56;38.50;101777.44;7315162;19;128935;-61
2021/12/31 10:22:03;;;;;;;4.82;1.00;;;;;;;21.60;38.53;101784.19;7317427;19;130591;-61
2021/12/31 10:24:38;;;;;;;6.90;1.00;;;;;;;21.65;38.46;101792.66;7315264;19;130476;-61
2021/12/31 10:27:13;;;;;;;10.73;1.35;;;;;;;21.67;38.64;101787.72;7317725;19;128858;-61
2021/12/31 10:29:53;;;;;;;2.72;0.88;;;;;;;21.71;38.45;101781.66;7315156;19;128906;-61
2021/12/31 10:32:22;;;;;;;5.72;1.00;;;;;;;21.70;38.90;101800.28;7315149;19;130435;-61
2021/12/31 10:34:49;;;;;;;6.93;1.08;;;;;;;21.70;38.69;101799.44;7318285;19;131181;-61
2021/12/31 10:37:19;;;;;;;5.93;0.90;;;;;;;21.70;38.64;101793.88;7314965;19;128700;-61
2021/12/31 10:39:55;;;;;;;3.15;0.93;;;;;;;21.70;38.42;101799.44;7317801;19;129943;-61
2021/12/31 10:42:28;;;;;;;3.65;0.95;;;;;;;21.71;38.60;101799.19;7314176;19;130688;-61
2021/12/31 10:44:57;;;;;;;4.95;1.00;;;;;;;21.70;39.00;101796.66;7317156;19;130508;-61
2021/12/31 10:47:42;;;;;;;2.05;0.63;;;;;;;21.69;38.69;101793.03;7314471;19;128821;-61
2021/12/31 10:50:15;;;;;;;2.25;0.80;;;;;;;21.66;38.81;101787.97;7316103;19;130550;-61
2021/12/31 10:53:03;;;;;;;4.00;1.42;;;;;;;21.65;39.10;101786.28;7317392;19;131172;-61
2021/12/31 10:55:31;;;;;;;1.98;0.70;;;;;;;21.60;39.38;101786.97;7315195;19;130615;-61
2021/12/31 10:57:59;;;;;;;3.95;0.77;;;;;;;21.58;39.08;101768.84;7314677;19;128965;-61
2021/12/31 11:00:29;;;;;;;5.30;0.73;;;;;;;21.52;39.25;101782.66;7314237;19;129068;-61
2021/12/31 11:02:56;;;;;;;2.80;0.98;;;;;;;21.49;39.77;101780.38;7316972;19;130619;-61
2021/12/31 11:05:24;;;;;;;3.20;0.90;;;;;;;21.46;39.73;101789.16;7314925;19;130598;-61
2021/12/31 11:07:52;;;;;;;1.95;0.75;;;;;;;21.44;39.21;101784.94;7315591;19;129836;-61
2021/12/31 11:10:39;;;;;;;2.38;1.10;;;;;;;21.40;39.59;101778.16;7314192;19;129212;-61
2021/12/31 11:13:13;;;;;;;2.55;0.77;;;;;;;21.39;39.49;101798.75;7312402;19;130626;-61
2021/12/31 11:15:44;;;;;;;1.75;0.80;;;;;;;21.32;39.39;101790.50;7312319;19;130910;-61
2021/12/31 11:18:24;;;;;;;4.28;0.88;;;;;;;21.22;39.51;101794.75;7343376;19;128924;-60
2021/12/31 11:20:54;;;;;;;1.92;0.93;;;;;;;21.20;39.69;101784.97;7346671;19;130657;-60
2021/12/31 11:23:29;;;;;;;3.28;1.00;;;;;;;21.19;39.94;101767.41;7338682;19;132132;-60
2021/12/31 11:26:00;;;;;;;3.80;0.98;;;;;;;21.18;39.82;101771.28;7344699;19;130883;-60
2021/12/31 11:28:29;;;;;;;4.20;0.90;;;;;;;21.18;39.99;101749.03;7343755;19;128918;-60